Terminal Aerodrome Forecast
Issued by NWS Blacksburg, VA

Current Version | Previous Version | Graphics & Text | Print | Product List | Glossary On
Versions: 1 2 3 4 5 6 7 8 9 10 11 12 13 14 15 16 17 18 19 20 21 22 23 24 25 26 27 28 29 30 31 32 33 34 35 36 37 38 39 40 41 42 43 44 45 46
000
FTUS41 KRNK 190842 AAA
TAFBLF
TAF AMD
KBLF 190842Z 1909/2006 10003KT P6SM OVC050
      TEMPO 1910/1913 4SM BR OVC025
     FM191500 13010KT P6SM OVC035
     FM191800 14005KT P6SM BKN035 BKN100
     FM200000 14006KT P6SM SCT025 BKN050=

USA.gov is the U.S. government's official web portal to all federal, state and local government web resources and services.